Marcelin, Canada
Current Conditions -  °F | °C
As of 10:00 PM on Wednesday 17 Dec 2014 (Local Time) from CYPA Reporting Station
Light Snow Light Snow  
Wind Chill:   Ceiling: 1100
Heat Index: 18°   Visibility: 12mi
Dew Point: 14°   Wind: 12mph
Humidity: 86%   Direction: 190°S
Pressure: 30.01"   Gusts: NA
Location:  52.93°N, 106.78°W
Report Text: CYPA 180400Z 19010KT 12SM -SN OVC011 M08/M10 A3001 RMK SC8 SLP195
Loading
Personal Weather Stations






























Interactive Weather Map New forecast layout! Learn more

10-Day Weather Forecast

Advertisements
Track Severe Weather on mobile